Time;durP1;ratioP1;P1;durP2;ratioP2;P2;SDS_P1;SDS_P2;PMS_P1;PMS_P2;Temp;Humidity;BMP_temperature;BMP_pressure;BME280_temperature;BME280_humidity;BME280_pressure;Samples;Min_cycle;Max_cycle;Signal;HPM_P1;HPM_P2
2022/06/26 00:02:06;;;;;;;1.20;1.10;;;;;;;;;;4933050;29;20543;-65
2022/06/26 00:04:32;;;;;;;5.20;1.67;;;;;;;;;;4931316;29;20440;-66
2022/06/26 00:06:59;;;;;;;1.73;1.30;;;;;;;;;;4933432;29;20430;-65
2022/06/26 00:09:25;;;;;;;1.77;1.77;;;;;;;;;;4932274;29;21012;-66
2022/06/26 00:11:51;;;;;;;4.00;3.63;;;;;;;;;;4934175;29;20424;-66
2022/06/26 00:14:17;;;;;;;1.60;1.50;;;;;;;;;;4933869;29;20443;-65
2022/06/26 00:16:43;;;;;;;3.47;1.70;;;;;;;;;;4932707;29;20487;-65
2022/06/26 00:19:09;;;;;;;1.70;1.60;;;;;;;;;;4927182;29;20936;-66
2022/06/26 00:21:35;;;;;;;1.60;1.50;;;;;;;;;;4931370;29;20861;-65
2022/06/26 00:24:01;;;;;;;1.20;1.20;;;;;;;;;;4934438;29;20822;-65
2022/06/26 00:26:27;;;;;;;2.60;1.40;;;;;;;;;;4932865;29;21412;-65
2022/06/26 00:28:53;;;;;;;2.43;1.70;;;;;;;;;;4933941;29;20487;-65
2022/06/26 00:31:19;;;;;;;1.67;1.57;;;;;;;;;;4932992;29;20441;-65
2022/06/26 00:33:45;;;;;;;4.60;1.90;;;;;;;;;;4932582;29;20440;-65
2022/06/26 00:36:11;;;;;;;2.07;1.97;;;;;;;;;;4934122;29;20798;-65
2022/06/26 00:38:37;;;;;;;2.67;2.03;;;;;;;;;;4932993;29;20435;-65
2022/06/26 00:41:05;;;;;;;1.50;1.40;;;;;;;;;;4934186;29;20442;-65
2022/06/26 00:43:31;;;;;;;2.87;2.07;;;;;;;;;;4932470;29;20447;-65
2022/06/26 00:45:57;;;;;;;4.30;2.97;;;;;;;;;;4933006;29;20848;-65
2022/06/26 00:48:23;;;;;;;3.80;2.37;;;;;;;;;;4933269;29;20488;-65
2022/06/26 00:50:50;;;;;;;3.77;3.50;;;;;;;;;;4934480;29;20696;-65
2022/06/26 00:53:16;;;;;;;3.03;2.90;;;;;;;;;;4934262;29;20199;-65
2022/06/26 00:55:41;;;;;;;3.43;3.23;;;;;;;;;;4933783;29;20447;-65
2022/06/26 00:58:08;;;;;;;4.23;2.30;;;;;;;;;;4931117;29;20809;-65
2022/06/26 01:00:34;;;;;;;7.43;3.13;;;;;;;;;;4931263;29;20444;-66
2022/06/26 01:03:00;;;;;;;2.70;2.60;;;;;;;;;;4929988;29;20465;-65
2022/06/26 01:05:26;;;;;;;3.37;2.57;;;;;;;;;;4931549;29;20941;-65
2022/06/26 01:07:52;;;;;;;2.67;2.43;;;;;;;;;;4929879;29;20707;-65
2022/06/26 01:10:18;;;;;;;2.60;2.50;;;;;;;;;;4932626;29;20451;-65
2022/06/26 01:12:44;;;;;;;2.10;2.00;;;;;;;;;;4931517;29;20827;-65
2022/06/26 01:15:10;;;;;;;2.40;2.17;;;;;;;;;;4933673;29;20188;-65
2022/06/26 01:17:36;;;;;;;6.07;2.40;;;;;;;;;;4929865;29;20439;-65
2022/06/26 01:20:04;;;;;;;1.50;1.50;;;;;;;;;;4930494;29;20941;-65
2022/06/26 01:22:30;;;;;;;1.90;1.80;;;;;;;;;;4929632;29;20441;-65
2022/06/26 01:24:56;;;;;;;2.40;1.63;;;;;;;;;;4929772;29;20538;-65
2022/06/26 01:27:22;;;;;;;3.63;2.33;;;;;;;;;;4930942;29;21000;-65
2022/06/26 01:29:48;;;;;;;2.27;2.00;;;;;;;;;;4932753;29;20447;-65
2022/06/26 01:32:14;;;;;;;2.13;2.13;;;;;;;;;;4932195;29;20994;-65
2022/06/26 01:34:40;;;;;;;2.43;2.03;;;;;;;;;;4933500;29;20523;-65
2022/06/26 01:37:06;;;;;;;3.03;1.70;;;;;;;;;;4931993;29;20432;-65
2022/06/26 01:39:32;;;;;;;3.57;2.03;;;;;;;;;;4932580;29;20212;-65
2022/06/26 01:41:58;;;;;;;1.90;1.77;;;;;;;;;;4932677;29;20439;-65
2022/06/26 01:44:24;;;;;;;3.07;1.43;;;;;;;;;;4930876;29;20451;-65
2022/06/26 01:46:50;;;;;;;2.83;1.80;;;;;;;;;;4933388;29;20951;-65
2022/06/26 01:49:16;;;;;;;2.00;1.80;;;;;;;;;;4931343;29;20731;-65
2022/06/26 01:51:43;;;;;;;1.87;1.80;;;;;;;;;;4931744;29;20709;-65
2022/06/26 01:54:09;;;;;;;2.07;1.40;;;;;;;;;;4931642;29;20644;-65
2022/06/26 01:56:35;;;;;;;1.60;1.60;;;;;;;;;;4933170;29;20419;-65
2022/06/26 01:59:01;;;;;;;11.33;1.80;;;;;;;;;;4928976;29;20239;-65
2022/06/26 02:01:27;;;;;;;4.63;1.70;;;;;;;;;;4931133;29;20529;-65
2022/06/26 02:03:53;;;;;;;19.07;2.27;;;;;;;;;;4928266;29;20527;-64
2022/06/26 02:06:19;;;;;;;2.63;1.60;;;;;;;;;;4931369;29;20438;-65
2022/06/26 02:08:45;;;;;;;2.83;1.60;;;;;;;;;;4932560;29;20502;-65
2022/06/26 02:13:55;;;;;;;2.20;1.60;;;;;;;;;;4932674;29;20451;-65
2022/06/26 02:16:23;;;;;;;1.90;1.90;;;;;;;;;;4932818;29;20415;-65
2022/06/26 02:18:50;;;;;;;4.37;2.13;;;;;;;;;;4931234;29;20864;-65
2022/06/26 02:21:17;;;;;;;4.77;3.10;;;;;;;;;;4930643;29;20807;-62
2022/06/26 02:23:44;;;;;;;2.00;1.87;;;;;;;;;;4929827;29;20448;-62
2022/06/26 02:26:10;;;;;;;4.50;2.20;;;;;;;;;;4934261;29;20441;-62
2022/06/26 02:28:37;;;;;;;2.43;2.23;;;;;;;;;;4929969;29;20590;-62
2022/06/26 02:31:03;;;;;;;2.10;2.10;;;;;;;;;;4930829;29;20443;-63
2022/06/26 02:33:29;;;;;;;1.80;1.70;;;;;;;;;;4930124;29;20455;-62
2022/06/26 02:35:55;;;;;;;2.00;2.00;;;;;;;;;;4930892;29;20431;-62
2022/06/26 02:38:24;;;;;;;2.50;2.37;;;;;;;;;;4931311;29;20517;-63
2022/06/26 02:40:51;;;;;;;3.13;2.93;;;;;;;;;;4932506;29;20468;-62
2022/06/26 02:43:18;;;;;;;3.53;3.27;;;;;;;;;;4929199;29;20471;-62
2022/06/26 02:45:45;;;;;;;2.97;2.00;;;;;;;;;;4931143;29;20466;-63
2022/06/26 02:48:11;;;;;;;2.37;2.37;;;;;;;;;;4930814;29;20488;-62
2022/06/26 02:50:37;;;;;;;2.90;2.00;;;;;;;;;;4930825;29;20438;-62
2022/06/26 02:53:04;;;;;;;2.53;1.90;;;;;;;;;;4930644;29;20447;-62
2022/06/26 02:55:30;;;;;;;3.33;2.20;;;;;;;;;;4928878;29;20818;-62
2022/06/26 02:57:56;;;;;;;1.83;1.73;;;;;;;;;;4929167;29;20450;-63
2022/06/26 03:00:22;;;;;;;2.13;2.13;;;;;;;;;;4930719;29;20475;-62
2022/06/26 03:02:48;;;;;;;1.90;1.90;;;;;;;;;;4931309;29;20432;-62
2022/06/26 03:05:14;;;;;;;2.13;2.03;;;;;;;;;;4931219;29;20506;-62
2022/06/26 03:07:40;;;;;;;3.70;2.47;;;;;;;;;;4930306;29;20479;-62
2022/06/26 03:10:06;;;;;;;2.07;1.97;;;;;;;;;;4932494;29;20817;-62
2022/06/26 03:12:32;;;;;;;2.70;2.60;;;;;;;;;;4930929;29;20191;-60
2022/06/26 03:14:58;;;;;;;3.20;2.90;;;;;;;;;;4932317;29;20503;-60
2022/06/26 03:17:25;;;;;;;3.47;2.80;;;;;;;;;;4930844;29;20451;-60
2022/06/26 03:19:51;;;;;;;3.20;3.00;;;;;;;;;;4931441;29;20446;-62
2022/06/26 03:22:17;;;;;;;3.17;3.07;;;;;;;;;;4932444;29;20440;-63
2022/06/26 03:24:43;;;;;;;2.97;2.73;;;;;;;;;;4935157;29;20523;-62
2022/06/26 03:27:09;;;;;;;2.40;2.30;;;;;;;;;;4934352;29;20975;-62
2022/06/26 03:29:35;;;;;;;5.77;3.00;;;;;;;;;;4934986;29;20498;-62
2022/06/26 03:32:01;;;;;;;7.73;3.23;;;;;;;;;;4931650;29;20435;-62
2022/06/26 03:34:27;;;;;;;6.03;2.43;;;;;;;;;;4935056;29;20783;-62
2022/06/26 03:36:53;;;;;;;2.90;2.80;;;;;;;;;;4934644;29;20453;-62
2022/06/26 03:39:19;;;;;;;3.20;3.10;;;;;;;;;;4933206;29;20443;-62
2022/06/26 03:41:57;;;;;;;3.10;2.90;;;;;;;;;;4933413;29;20192;-62
2022/06/26 03:44:23;;;;;;;2.90;2.70;;;;;;;;;;4933006;29;20442;-62
2022/06/26 03:46:49;;;;;;;2.63;2.63;;;;;;;;;;4933506;29;20435;-62
2022/06/26 03:49:15;;;;;;;2.60;2.60;;;;;;;;;;4932101;29;20494;-62
2022/06/26 03:51:41;;;;;;;3.37;2.87;;;;;;;;;;4935088;29;20818;-62
2022/06/26 03:54:07;;;;;;;3.17;3.00;;;;;;;;;;4933110;29;20435;-62
2022/06/26 03:56:33;;;;;;;2.80;2.60;;;;;;;;;;4932184;29;21257;-62
2022/06/26 03:59:00;;;;;;;2.77;2.77;;;;;;;;;;4932762;29;20254;-62
2022/06/26 04:01:26;;;;;;;3.70;2.20;;;;;;;;;;4933517;29;20526;-62
2022/06/26 04:03:52;;;;;;;2.43;2.33;;;;;;;;;;4931913;29;20643;-62
2022/06/26 04:06:18;;;;;;;3.33;2.27;;;;;;;;;;4931963;29;20843;-62
2022/06/26 04:08:44;;;;;;;2.67;2.47;;;;;;;;;;4934232;29;20486;-62
2022/06/26 04:11:10;;;;;;;2.93;2.70;;;;;;;;;;4934681;29;20518;-65
2022/06/26 04:13:36;;;;;;;2.43;2.20;;;;;;;;;;4932019;29;20443;-62
2022/06/26 04:16:02;;;;;;;2.37;2.13;;;;;;;;;;4931942;29;20192;-63
2022/06/26 04:18:28;;;;;;;8.37;2.60;;;;;;;;;;4930331;29;20871;-62
2022/06/26 04:20:54;;;;;;;1.77;1.77;;;;;;;;;;4933449;29;20464;-62
2022/06/26 04:23:20;;;;;;;2.50;2.10;;;;;;;;;;4932210;29;20835;-62
2022/06/26 04:25:46;;;;;;;2.50;2.30;;;;;;;;;;4933908;29;20435;-62
2022/06/26 04:28:12;;;;;;;1.97;1.97;;;;;;;;;;4930557;29;21034;-69
2022/06/26 04:30:38;;;;;;;2.17;2.17;;;;;;;;;;4929676;29;20818;-63
2022/06/26 04:33:04;;;;;;;1.80;1.80;;;;;;;;;;4931222;29;20464;-62
2022/06/26 04:35:31;;;;;;;1.70;1.70;;;;;;;;;;4932264;29;20472;-63
2022/06/26 04:37:56;;;;;;;2.10;2.00;;;;;;;;;;4932289;29;20436;-64
2022/06/26 04:40:22;;;;;;;2.73;2.00;;;;;;;;;;4932082;29;21629;-62
2022/06/26 04:42:48;;;;;;;2.60;2.17;;;;;;;;;;4932600;29;20450;-62
2022/06/26 04:45:14;;;;;;;2.17;2.10;;;;;;;;;;4932611;29;20785;-62
2022/06/26 04:47:40;;;;;;;7.40;2.40;;;;;;;;;;4932031;29;20476;-63
2022/06/26 04:50:07;;;;;;;12.10;1.83;;;;;;;;;;4931142;29;20519;-62
2022/06/26 04:52:33;;;;;;;3.27;2.17;;;;;;;;;;4932561;29;20762;-62
2022/06/26 04:54:59;;;;;;;5.30;3.60;;;;;;;;;;4933961;29;20420;-66
2022/06/26 04:57:25;;;;;;;1.43;1.43;;;;;;;;;;4932146;29;20442;-65
2022/06/26 04:59:51;;;;;;;2.90;2.70;;;;;;;;;;4933911;29;20595;-65
2022/06/26 05:02:17;;;;;;;2.40;2.30;;;;;;;;;;4932511;29;20522;-65
2022/06/26 05:04:43;;;;;;;3.00;2.90;;;;;;;;;;4931503;29;20569;-65
2022/06/26 05:07:09;;;;;;;2.67;2.53;;;;;;;;;;4932084;29;20455;-65
2022/06/26 05:09:35;;;;;;;2.53;2.37;;;;;;;;;;4932290;29;20487;-66
2022/06/26 05:12:01;;;;;;;4.07;3.70;;;;;;;;;;4931421;29;20446;-65
2022/06/26 05:14:27;;;;;;;2.40;2.30;;;;;;;;;;4934098;29;20448;-65
2022/06/26 05:16:53;;;;;;;2.60;2.40;;;;;;;;;;4931908;29;20488;-63
2022/06/26 05:19:19;;;;;;;3.07;2.17;;;;;;;;;;4933020;29;20880;-65
2022/06/26 05:21:45;;;;;;;2.70;2.37;;;;;;;;;;4932370;29;20467;-65
2022/06/26 05:24:11;;;;;;;2.10;1.87;;;;;;;;;;4929649;29;20452;-65
2022/06/26 05:26:39;;;;;;;1.80;1.70;;;;;;;;;;4933045;29;20424;-65
2022/06/26 05:29:05;;;;;;;2.30;2.20;;;;;;;;;;4932883;29;20688;-65
2022/06/26 05:31:31;;;;;;;2.80;2.57;;;;;;;;;;4932230;29;20435;-65
2022/06/26 05:33:57;;;;;;;2.07;1.97;;;;;;;;;;4932091;29;20963;-65
2022/06/26 05:36:23;;;;;;;10.50;1.10;;;;;;;;;;4933103;29;20858;-65
2022/06/26 05:38:49;;;;;;;2.53;2.43;;;;;;;;;;4933605;29;20764;-65
2022/06/26 05:41:15;;;;;;;1.90;1.80;;;;;;;;;;4932209;29;20984;-66
2022/06/26 05:43:42;;;;;;;1.87;1.80;;;;;;;;;;4931765;29;20448;-65
2022/06/26 05:46:08;;;;;;;2.00;1.90;;;;;;;;;;4932529;29;20855;-66
2022/06/26 05:48:34;;;;;;;1.73;1.63;;;;;;;;;;4932762;29;20480;-65
2022/06/26 05:51:00;;;;;;;1.30;1.30;;;;;;;;;;4931337;29;20436;-66
2022/06/26 05:53:26;;;;;;;2.13;1.23;;;;;;;;;;4930223;29;20448;-66
2022/06/26 05:55:52;;;;;;;2.40;1.93;;;;;;;;;;4932498;29;20787;-66
2022/06/26 05:58:18;;;;;;;1.83;1.73;;;;;;;;;;4930838;29;20443;-66
2022/06/26 06:00:44;;;;;;;10.90;1.90;;;;;;;;;;4931713;29;21029;-66
2022/06/26 06:03:10;;;;;;;2.93;1.47;;;;;;;;;;4930637;29;20494;-66
2022/06/26 06:05:36;;;;;;;2.10;1.73;;;;;;;;;;4932113;29;20431;-66
2022/06/26 06:08:02;;;;;;;2.30;1.10;;;;;;;;;;4932259;29;20698;-67
2022/06/26 06:10:28;;;;;;;5.43;1.60;;;;;;;;;;4930370;29;20448;-66
2022/06/26 06:12:54;;;;;;;1.70;1.70;;;;;;;;;;4931025;29;20912;-67
2022/06/26 06:15:21;;;;;;;1.60;1.20;;;;;;;;;;4933005;29;20510;-65
2022/06/26 06:17:47;;;;;;;1.53;1.43;;;;;;;;;;4931441;29;20443;-66
2022/06/26 06:20:14;;;;;;;2.57;1.70;;;;;;;;;;4930901;29;20958;-66
2022/06/26 06:22:44;;;;;;;1.83;1.67;;;;;;;;;;4929138;29;20459;-66
2022/06/26 06:25:11;;;;;;;2.60;1.63;;;;;;;;;;4930823;29;20444;-66
2022/06/26 06:27:37;;;;;;;2.00;1.80;;;;;;;;;;4932216;29;20534;-66
2022/06/26 06:30:04;;;;;;;1.50;1.40;;;;;;;;;;4932670;29;20428;-66
2022/06/26 06:32:30;;;;;;;8.60;1.80;;;;;;;;;;4930061;29;20488;-66
2022/06/26 06:34:56;;;;;;;2.23;2.17;;;;;;;;;;4927995;29;20530;-66
2022/06/26 06:37:22;;;;;;;2.00;2.00;;;;;;;;;;4931093;29;20432;-66
2022/06/26 06:39:48;;;;;;;2.20;1.63;;;;;;;;;;4932042;29;20463;-60
2022/06/26 06:42:14;;;;;;;1.70;1.70;;;;;;;;;;4928754;29;20786;-61
2022/06/26 06:44:40;;;;;;;1.90;1.90;;;;;;;;;;4930284;29;20928;-63
2022/06/26 06:47:07;;;;;;;3.40;1.80;;;;;;;;;;4930769;29;20435;-65
2022/06/26 06:49:33;;;;;;;1.70;1.60;;;;;;;;;;4929436;29;20573;-65
2022/06/26 06:52:00;;;;;;;2.33;2.23;;;;;;;;;;4931422;29;20459;-66
2022/06/26 06:54:26;;;;;;;3.10;2.20;;;;;;;;;;4931793;29;20434;-65
2022/06/26 06:56:53;;;;;;;2.87;1.97;;;;;;;;;;4930883;29;20427;-73
2022/06/26 06:59:19;;;;;;;1.93;1.93;;;;;;;;;;4932512;29;20467;-66
2022/06/26 07:01:45;;;;;;;1.33;1.33;;;;;;;;;;4930568;29;20507;-65
2022/06/26 07:04:11;;;;;;;1.77;1.67;;;;;;;;;;4932050;29;20967;-66
2022/06/26 07:06:37;;;;;;;1.80;1.70;;;;;;;;;;4930482;29;20446;-66
2022/06/26 07:09:03;;;;;;;2.83;1.53;;;;;;;;;;4929207;29;20518;-66
2022/06/26 07:11:29;;;;;;;1.87;1.87;;;;;;;;;;4930599;29;20948;-66
2022/06/26 07:13:55;;;;;;;1.80;1.70;;;;;;;;;;4932043;29;20451;-66
2022/06/26 07:16:21;;;;;;;1.60;1.50;;;;;;;;;;4927315;29;20817;-65
2022/06/26 07:18:47;;;;;;;3.63;1.67;;;;;;;;;;4927580;29;20459;-66
2022/06/26 07:21:13;;;;;;;1.30;1.30;;;;;;;;;;4930183;29;20870;-66
2022/06/26 07:23:39;;;;;;;1.60;1.50;;;;;;;;;;4931814;29;20487;-66
2022/06/26 07:26:05;;;;;;;3.90;1.60;;;;;;;;;;4931787;29;20440;-66
2022/06/26 07:28:31;;;;;;;6.30;2.00;;;;;;;;;;4931429;29;20569;-66
2022/06/26 07:30:58;;;;;;;1.37;1.30;;;;;;;;;;4930663;29;20523;-67
2022/06/26 07:36:10;;;;;;;1.27;1.27;;;;;;;;;;4929955;29;20442;-65
2022/06/26 07:38:36;;;;;;;1.80;1.40;;;;;;;;;;4931577;29;20428;-67
2022/06/26 07:41:02;;;;;;;1.50;1.50;;;;;;;;;;4929983;29;20442;-66
2022/06/26 07:43:28;;;;;;;2.40;1.70;;;;;;;;;;4930421;29;20440;-66
2022/06/26 07:45:54;;;;;;;1.37;1.37;;;;;;;;;;4929065;29;20542;-66
2022/06/26 07:48:20;;;;;;;1.70;1.70;;;;;;;;;;4929743;29;20487;-66
2022/06/26 07:50:46;;;;;;;5.20;2.00;;;;;;;;;;4930475;29;20440;-66
2022/06/26 07:53:12;;;;;;;1.03;1.03;;;;;;;;;;4930027;29;20551;-68
2022/06/26 07:55:38;;;;;;;1.67;1.57;;;;;;;;;;4931975;29;20995;-65
2022/06/26 07:58:04;;;;;;;2.57;1.30;;;;;;;;;;4928445;29;20436;-66
2022/06/26 08:00:30;;;;;;;1.53;1.53;;;;;;;;;;4929793;29;20491;-66
2022/06/26 08:03:03;;;;;;;8.90;1.20;;;;;;;;;;4930958;29;20436;-67
2022/06/26 08:05:29;;;;;;;1.87;1.20;;;;;;;;;;4931815;29;20415;-66
2022/06/26 08:07:55;;;;;;;1.73;1.73;;;;;;;;;;4928398;29;21008;-66
2022/06/26 08:10:21;;;;;;;1.20;1.20;;;;;;;;;;4932355;29;20958;-65
2022/06/26 08:12:47;;;;;;;1.27;1.27;;;;;;;;;;4933341;29;20881;-66
2022/06/26 08:15:13;;;;;;;2.50;1.60;;;;;;;;;;4934756;29;20432;-66
2022/06/26 08:17:39;;;;;;;2.40;1.50;;;;;;;;;;4934392;29;20220;-68
2022/06/26 08:20:05;;;;;;;1.27;1.27;;;;;;;;;;4931413;29;20440;-65
2022/06/26 08:22:31;;;;;;;1.63;1.60;;;;;;;;;;4933441;29;20444;-66
2022/06/26 08:24:57;;;;;;;1.23;1.23;;;;;;;;;;4929193;29;20483;-66
2022/06/26 08:27:23;;;;;;;1.50;1.50;;;;;;;;;;4928533;29;20440;-66
2022/06/26 08:29:48;;;;;;;1.13;1.13;;;;;;;;;;4931382;29;20497;-66
2022/06/26 08:32:14;;;;;;;1.73;1.00;;;;;;;;;;4931248;29;20219;-66
2022/06/26 08:34:41;;;;;;;2.03;1.80;;;;;;;;;;4926191;29;20506;-66
2022/06/26 08:37:08;;;;;;;1.50;1.40;;;;;;;;;;4928586;29;20460;-67
2022/06/26 08:39:35;;;;;;;3.40;1.40;;;;;;;;;;4931994;29;20842;-66
2022/06/26 08:42:02;;;;;;;1.60;1.10;;;;;;;;;;4933923;29;20780;-68
2022/06/26 08:44:28;;;;;;;1.60;1.50;;;;;;;;;;4928119;29;20435;-66
2022/06/26 08:46:55;;;;;;;1.30;1.30;;;;;;;;;;4933917;29;20456;-66
2022/06/26 08:49:23;;;;;;;3.10;1.80;;;;;;;;;;4931387;29;20503;-66
2022/06/26 08:51:50;;;;;;;1.20;1.20;;;;;;;;;;4931872;29;20440;-68
2022/06/26 08:54:17;;;;;;;2.20;1.60;;;;;;;;;;4933817;29;20444;-66
2022/06/26 08:56:44;;;;;;;1.67;1.37;;;;;;;;;;4932922;29;20551;-66
2022/06/26 08:59:14;;;;;;;3.33;1.37;;;;;;;;;;4934152;29;20519;-65
2022/06/26 09:01:40;;;;;;;1.73;1.63;;;;;;;;;;4932530;29;20491;-66
2022/06/26 09:04:07;;;;;;;2.97;1.13;;;;;;;;;;4933957;29;20466;-66
2022/06/26 09:06:33;;;;;;;1.90;1.07;;;;;;;;;;4933389;29;20435;-66
2022/06/26 09:08:59;;;;;;;1.80;1.80;;;;;;;;;;4933679;29;20483;-66
2022/06/26 09:11:25;;;;;;;3.80;1.30;;;;;;;;;;4931497;29;20532;-66
2022/06/26 09:13:53;;;;;;;1.80;1.13;;;;;;;;;;4931638;29;20451;-66
2022/06/26 09:16:28;;;;;;;2.10;1.20;;;;;;;;;;4927516;29;20933;-66
2022/06/26 09:18:54;;;;;;;1.43;1.43;;;;;;;;;;4931438;29;20443;-63
2022/06/26 09:21:25;;;;;;;7.67;1.27;;;;;;;;;;4933603;29;20412;-66
2022/06/26 09:23:55;;;;;;;1.97;1.07;;;;;;;;;;4932824;29;20451;-66
2022/06/26 09:26:21;;;;;;;1.77;1.67;;;;;;;;;;4932289;29;20838;-66
2022/06/26 09:28:47;;;;;;;1.10;1.10;;;;;;;;;;4930061;29;20988;-67
2022/06/26 09:31:18;;;;;;;1.70;1.60;;;;;;;;;;4933068;29;20443;-66
2022/06/26 09:33:44;;;;;;;1.63;1.30;;;;;;;;;;4933641;29;20470;-66
2022/06/26 09:36:15;;;;;;;2.57;1.13;;;;;;;;;;4932110;29;20471;-66
2022/06/26 09:38:41;;;;;;;1.23;1.23;;;;;;;;;;4928664;29;20611;-66
2022/06/26 09:41:08;;;;;;;1.87;1.33;;;;;;;;;;4929604;29;20490;-67
2022/06/26 09:43:35;;;;;;;1.30;1.30;;;;;;;;;;4931595;29;20952;-66
2022/06/26 09:46:08;;;;;;;7.53;1.43;;;;;;;;;;4932436;29;20483;-67
2022/06/26 09:48:35;;;;;;;1.53;1.40;;;;;;;;;;4930818;29;21066;-64
2022/06/26 09:51:01;;;;;;;1.50;1.50;;;;;;;;;;4931390;29;20506;-65
2022/06/26 09:53:28;;;;;;;1.43;1.33;;;;;;;;;;4929963;29;20534;-65
2022/06/26 09:55:54;;;;;;;1.43;1.43;;;;;;;;;;4932357;29;20924;-64
2022/06/26 09:58:21;;;;;;;7.00;1.47;;;;;;;;;;4932762;29;20476;-66
2022/06/26 10:06:26;;;;;;;1.23;1.23;;;;;;;;;;4929433;29;21051;-65
2022/06/26 10:08:54;;;;;;;1.60;1.50;;;;;;;;;;4933103;29;20489;-65
2022/06/26 10:11:22;;;;;;;1.30;1.20;;;;;;;;;;4929880;29;20443;-66
2022/06/26 10:13:48;;;;;;;1.20;1.20;;;;;;;;;;4932869;29;20436;-65
2022/06/26 10:16:29;;;;;;;1.10;1.10;;;;;;;;;;4931296;29;20463;-66
2022/06/26 10:18:58;;;;;;;1.10;1.10;;;;;;;;;;4932515;29;20432;-66
2022/06/26 10:21:24;;;;;;;2.10;2.10;;;;;;;;;;4932158;29;20970;-65
2022/06/26 10:23:50;;;;;;;2.57;2.47;;;;;;;;;;4931480;29;20803;-65
2022/06/26 10:26:22;;;;;;;3.07;1.90;;;;;;;;;;4932587;29;20914;-67
2022/06/26 10:29:00;;;;;;;1.60;1.50;;;;;;;;;;4931816;29;20498;-65
2022/06/26 10:31:29;;;;;;;1.93;1.93;;;;;;;;;;4930685;29;20916;-65
2022/06/26 10:33:55;;;;;;;2.30;1.20;;;;;;;;;;4932231;29;20447;-65
2022/06/26 10:36:24;;;;;;;1.10;1.03;;;;;;;;;;4931001;29;20424;-66
2022/06/26 10:39:03;;;;;;;1.23;1.23;;;;;;;;;;4930830;29;20474;-66
2022/06/26 10:44:29;;;;;;;1.83;1.73;;;;;;;;;;4911324;29;20447;-65
2022/06/26 10:46:58;;;;;;;1.40;1.40;;;;;;;;;;4932644;29;20514;-66
2022/06/26 10:49:24;;;;;;;0.90;0.90;;;;;;;;;;4930600;29;20477;-66
2022/06/26 10:51:50;;;;;;;1.10;1.10;;;;;;;;;;4932313;29;20833;-66
2022/06/26 10:54:37;;;;;;;1.30;1.30;;;;;;;;;;4930838;29;20435;-67
2022/06/26 10:57:03;;;;;;;2.67;1.10;;;;;;;;;;4931468;29;20435;-70
2022/06/26 10:59:29;;;;;;;4.40;1.90;;;;;;;;;;4931798;29;20534;-66
2022/06/26 11:01:55;;;;;;;1.13;1.13;;;;;;;;;;4930889;29;20452;-67
2022/06/26 11:04:21;;;;;;;1.10;1.10;;;;;;;;;;4930463;29;20474;-65
2022/06/26 11:06:47;;;;;;;1.80;1.70;;;;;;;;;;4929640;29;20808;-65
2022/06/26 11:09:16;;;;;;;1.10;1.03;;;;;;;;;;4932404;29;20475;-65
2022/06/26 11:11:42;;;;;;;1.00;1.00;;;;;;;;;;4932504;29;20424;-65
2022/06/26 11:14:08;;;;;;;2.30;2.20;;;;;;;;;;4932159;29;20430;-66
2022/06/26 11:16:34;;;;;;;1.63;1.63;;;;;;;;;;4927402;29;20448;-65
2022/06/26 11:19:03;;;;;;;2.47;2.27;;;;;;;;;;4929713;29;20440;-65
2022/06/26 11:21:29;;;;;;;6.03;2.27;;;;;;;;;;4931592;29;20471;-65
2022/06/26 11:23:55;;;;;;;2.30;1.77;;;;;;;;;;4930337;29;20440;-65
2022/06/26 11:26:22;;;;;;;7.10;2.50;;;;;;;;;;4928829;29;20445;-65
2022/06/26 11:28:54;;;;;;;2.70;2.17;;;;;;;;;;4930117;29;20483;-65
2022/06/26 11:31:21;;;;;;;2.13;2.03;;;;;;;;;;4932327;29;20446;-65
2022/06/26 11:33:48;;;;;;;1.60;1.60;;;;;;;;;;4930269;29;20434;-66
2022/06/26 11:36:15;;;;;;;1.90;1.90;;;;;;;;;;4929905;29;20459;-75
2022/06/26 11:38:47;;;;;;;1.70;1.70;;;;;;;;;;4929270;29;20465;-76
2022/06/26 11:41:13;;;;;;;2.50;2.00;;;;;;;;;;4930816;29;20778;-76
2022/06/26 11:43:45;;;;;;;1.20;1.20;;;;;;;;;;4932130;29;20469;-65
2022/06/26 11:46:11;;;;;;;3.00;2.00;;;;;;;;;;4932557;29;20960;-65
2022/06/26 11:48:37;;;;;;;1.90;1.90;;;;;;;;;;4932731;29;20554;-65
2022/06/26 11:51:03;;;;;;;2.03;1.70;;;;;;;;;;4934429;29;20447;-66
2022/06/26 11:53:30;;;;;;;1.17;1.17;;;;;;;;;;4932706;29;20451;-65
2022/06/26 11:56:01;;;;;;;1.50;1.30;;;;;;;;;;4933336;29;20506;-65
2022/06/26 11:58:28;;;;;;;0.97;0.97;;;;;;;;;;4933027;29;20494;-65
2022/06/26 12:01:26;;;;;;;1.20;1.20;;;;;;;;;;4933591;29;20539;-65
2022/06/26 12:03:53;;;;;;;1.77;1.30;;;;;;;;;;4900412;29;20478;-66
2022/06/26 12:06:29;;;;;;;2.20;1.17;;;;;;;;;;4932469;29;20427;-65
2022/06/26 12:08:56;;;;;;;0.80;0.80;;;;;;;;;;4933082;29;20495;-66
2022/06/26 12:11:23;;;;;;;1.27;1.27;;;;;;;;;;4933115;29;20431;-65
2022/06/26 12:13:49;;;;;;;1.37;1.27;;;;;;;;;;4929999;29;20510;-65
2022/06/26 12:16:15;;;;;;;1.17;1.17;;;;;;;;;;4933010;29;20439;-65
2022/06/26 12:18:42;;;;;;;1.53;1.13;;;;;;;;;;4933358;29;20780;-67
2022/06/26 12:21:17;;;;;;;1.10;1.10;;;;;;;;;;4932521;29;20431;-65
2022/06/26 12:23:44;;;;;;;1.30;1.30;;;;;;;;;;4934027;29;20443;-66
2022/06/26 12:26:11;;;;;;;1.23;1.23;;;;;;;;;;4926739;29;20450;-65
2022/06/26 12:28:51;;;;;;;1.90;1.40;;;;;;;;;;4932308;29;21008;-65
2022/06/26 12:31:18;;;;;;;1.80;1.50;;;;;;;;;;4933786;29;20932;-65
2022/06/26 12:33:45;;;;;;;1.00;1.00;;;;;;;;;;4931883;29;20861;-65
2022/06/26 12:36:11;;;;;;;1.53;1.00;;;;;;;;;;4934463;29;20458;-64
2022/06/26 12:38:37;;;;;;;0.90;0.90;;;;;;;;;;4933757;29;20475;-65
2022/06/26 12:41:03;;;;;;;1.40;1.40;;;;;;;;;;4932009;29;20436;-65
2022/06/26 12:43:29;;;;;;;1.10;1.10;;;;;;;;;;4933383;29;20479;-65
2022/06/26 12:45:55;;;;;;;1.00;1.00;;;;;;;;;;4933527;29;20975;-65
2022/06/26 12:48:21;;;;;;;4.67;1.30;;;;;;;;;;4932880;29;20514;-65
2022/06/26 12:50:47;;;;;;;1.63;1.23;;;;;;;;;;4931774;29;20436;-65
2022/06/26 12:53:13;;;;;;;1.03;1.03;;;;;;;;;;4932706;29;21777;-65
2022/06/26 12:55:39;;;;;;;1.07;1.07;;;;;;;;;;4932496;29;20428;-65
2022/06/26 12:58:05;;;;;;;1.53;1.27;;;;;;;;;;4933870;29;20455;-65
2022/06/26 13:00:31;;;;;;;1.57;1.57;;;;;;;;;;4931985;29;20970;-65
2022/06/26 13:02:57;;;;;;;1.40;1.30;;;;;;;;;;4931276;29;20439;-65
2022/06/26 13:05:23;;;;;;;1.30;1.20;;;;;;;;;;4932101;29;20455;-67
2022/06/26 13:07:50;;;;;;;0.90;0.90;;;;;;;;;;4933049;29;20440;-65
2022/06/26 13:10:15;;;;;;;1.50;1.40;;;;;;;;;;4933900;29;20432;-65
2022/06/26 13:12:41;;;;;;;1.20;1.20;;;;;;;;;;4932612;29;20959;-65
2022/06/26 13:15:08;;;;;;;1.03;1.03;;;;;;;;;;4932184;29;20502;-65
2022/06/26 13:17:34;;;;;;;1.10;1.10;;;;;;;;;;4932352;29;20435;-65
2022/06/26 13:20:00;;;;;;;1.70;0.93;;;;;;;;;;4933717;29;20454;-66
2022/06/26 13:22:26;;;;;;;0.90;0.90;;;;;;;;;;4932027;29;20447;-65
2022/06/26 13:24:52;;;;;;;1.20;1.20;;;;;;;;;;4931706;29;20486;-65
2022/06/26 13:27:18;;;;;;;1.10;1.10;;;;;;;;;;4930305;29;20844;-65
2022/06/26 13:29:44;;;;;;;1.17;1.07;;;;;;;;;;4934458;29;20487;-66
2022/06/26 13:32:10;;;;;;;1.37;1.27;;;;;;;;;;4932783;29;20435;-65
2022/06/26 13:34:36;;;;;;;1.70;0.80;;;;;;;;;;4932225;29;20453;-65
2022/06/26 13:37:02;;;;;;;4.73;1.20;;;;;;;;;;4933279;29;20456;-65
2022/06/26 13:39:28;;;;;;;0.90;0.90;;;;;;;;;;4931335;29;21036;-65
2022/06/26 13:41:54;;;;;;;1.30;1.30;;;;;;;;;;4930184;29;20557;-65
2022/06/26 13:44:20;;;;;;;1.33;1.33;;;;;;;;;;4930089;29;20540;-65
2022/06/26 13:46:46;;;;;;;1.10;1.10;;;;;;;;;;4931625;29;20468;-65
2022/06/26 13:49:12;;;;;;;0.77;0.77;;;;;;;;;;4929357;29;20547;-65
2022/06/26 13:51:39;;;;;;;1.80;1.20;;;;;;;;;;4929146;29;20505;-66
2022/06/26 13:54:05;;;;;;;4.90;1.00;;;;;;;;;;4931653;29;20443;-65
2022/06/26 13:56:31;;;;;;;2.23;1.27;;;;;;;;;;4929170;29;20460;-67
2022/06/26 13:58:57;;;;;;;1.00;1.00;;;;;;;;;;4929031;29;20479;-65
2022/06/26 14:01:24;;;;;;;1.10;1.10;;;;;;;;;;4931725;29;20992;-65
2022/06/26 14:03:52;;;;;;;2.60;1.00;;;;;;;;;;4929763;29;20947;-65
2022/06/26 14:06:18;;;;;;;1.30;1.30;;;;;;;;;;4929256;29;20868;-65
2022/06/26 14:08:44;;;;;;;2.73;1.17;;;;;;;;;;4928123;29;20523;-66
2022/06/26 14:11:11;;;;;;;1.33;1.17;;;;;;;;;;4932187;29;21189;-66
2022/06/26 14:13:37;;;;;;;1.90;1.10;;;;;;;;;;4932190;29;20915;-64
2022/06/26 14:16:03;;;;;;;1.20;1.20;;;;;;;;;;4928115;29;20560;-66
2022/06/26 14:18:29;;;;;;;1.03;1.03;;;;;;;;;;4930931;29;20431;-66
2022/06/26 14:20:55;;;;;;;2.97;1.40;;;;;;;;;;4931930;29;20523;-66
2022/06/26 14:26:06;;;;;;;1.40;0.97;;;;;;;;;;4929772;29;20490;-66
2022/06/26 14:28:34;;;;;;;1.47;1.37;;;;;;;;;;4930956;29;20483;-65
2022/06/26 14:31:00;;;;;;;1.53;1.20;;;;;;;;;;4927639;29;20548;-65
2022/06/26 14:33:27;;;;;;;0.80;0.80;;;;;;;;;;4932360;29;20785;-65
2022/06/26 14:35:53;;;;;;;1.43;0.80;;;;;;;;;;4932939;29;20436;-67
2022/06/26 14:38:19;;;;;;;3.80;1.53;;;;;;;;;;4931195;29;20438;-66
2022/06/26 14:40:45;;;;;;;1.33;1.30;;;;;;;;;;4930648;29;20443;-67
2022/06/26 14:43:13;;;;;;;1.00;1.00;;;;;;;;;;4930411;29;20808;-65
2022/06/26 14:45:39;;;;;;;0.83;0.83;;;;;;;;;;4930020;29;20540;-65
2022/06/26 14:48:05;;;;;;;1.00;1.00;;;;;;;;;;4931914;29;20572;-65
2022/06/26 14:50:31;;;;;;;0.90;0.90;;;;;;;;;;4930844;29;20440;-65
2022/06/26 14:52:57;;;;;;;1.33;1.07;;;;;;;;;;4928318;29;20888;-67
2022/06/26 14:55:23;;;;;;;0.70;0.70;;;;;;;;;;4931025;29;20446;-65
2022/06/26 14:57:49;;;;;;;1.50;1.40;;;;;;;;;;4931793;29;20431;-68